Time,TemperatureF,DewpointF,PressureIn,WindDirection,WindDirectionDegrees,WindSpeedMPH,WindSpeedGustMPH,Humidity,HourlyPrecipIn,Conditions,Clouds,dailyrainin,SoftwareType,DateUTC
2013-02-25 00:00:00,26.3,7.7,30.32,NNE,24,6.0,7.0,45,0.00,,,0.00,WUHU216DAVISVP2,2013-02-25 07:00:00,
2013-02-25 00:05:00,26.4,7.8,30.32,NNE,13,4.0,8.0,45,0.00,,,0.00,WUHU216DAVISVP2,2013-02-25 07:05:00,
2013-02-25 00:10:00,26.5,7.9,30.32,NNE,15,2.0,8.0,45,0.00,,,0.00,WUHU216DAVISVP2,2013-02-25 07:10:00,
2013-02-25 00:15:00,26.5,7.9,30.32,NNE,17,3.0,8.0,45,0.00,,,0.00,WUHU216DAVISVP2,2013-02-25 07:15:00,
2013-02-25 00:20:00,26.3,8.3,30.33,NE,43,3.0,7.0,46,0.00,,,0.00,WUHU216DAVISVP2,2013-02-25 07:20:00,
2013-02-25 00:25:00,26.2,8.1,30.33,NE,36,1.0,6.0,46,0.00,,,0.00,WUHU216DAVISVP2,2013-02-25 07:25:00,
2013-02-25 00:30:00,26.0,7.9,30.33,North,360,0.0,6.0,46,0.00,,,0.00,WUHU216DAVISVP2,2013-02-25 07:30:00,
2013-02-25 00:35:00,25.8,7.7,30.33,NNE,15,0.0,4.0,46,0.00,,,0.00,WUHU216DAVISVP2,2013-02-25 07:35:00,
2013-02-25 00:40:00,25.7,7.6,30.33,NNE,15,0.0,4.0,46,0.00,,,0.00,WUHU216DAVISVP2,2013-02-25 07:40:00,
2013-02-25 00:45:00,25.4,7.9,30.33,NNE,15,0.0,1.0,47,0.00,,,0.00,WUHU216DAVISVP2,2013-02-25 07:45:00,
2013-02-25 00:50:00,25.2,7.7,30.33,North,350,4.0,4.0,47,0.00,,,0.00,WUHU216DAVISVP2,2013-02-25 07:50:00,
2013-02-25 00:55:00,25.3,7.8,30.33,North,355,0.0,4.0,47,0.00,,,0.00,WUHU216DAVISVP2,2013-02-25 07:55:00,
2013-02-25 01:00:00,25.2,7.7,30.33,North,9,0.0,4.0,47,0.00,,,0.00,WUHU216DAVISVP2,2013-02-25 08:00:00,
2013-02-25 01:05:00,25.3,7.8,30.34,NNE,13,1.0,5.0,47,0.00,,,0.00,WUHU216DAVISVP2,2013-02-25 08:05:00,
2013-02-25 01:10:00,25.3,8.2,30.34,North,5,4.0,5.0,48,0.00,,,0.00,WUHU216DAVISVP2,2013-02-25 08:10:00,
2013-02-25 01:15:00,25.3,8.2,30.34,North,355,3.0,4.0,48,0.00,,,0.00,WUHU216DAVISVP2,2013-02-25 08:15:00,
2013-02-25 01:20:00,25.4,8.3,30.34,NNE,15,0.0,5.0,48,0.00,,,0.00,WUHU216DAVISVP2,2013-02-25 08:20:00,
2013-02-25 01:25:00,25.3,7.9,30.35,NNE,17,0.0,5.0,47,0.00,,,0.00,WUHU216DAVISVP2,2013-02-25 08:25:00,
2013-02-25 01:30:00,25.1,8.5,30.35,NNE,17,0.0,1.0,49,0.00,,,0.00,WUHU216DAVISVP2,2013-02-25 08:30:00,
2013-02-25 01:35:00,24.7,8.2,30.35,NNE,17,0.0,0.0,49,0.00,,,0.00,WUHU216DAVISVP2,2013-02-25 08:35:00,
2013-02-25 01:40:00,24.2,8.2,30.35,NNE,17,0.0,0.0,50,0.00,,,0.00,WUHU216DAVISVP2,2013-02-25 08:40:00,
2013-02-25 01:45:00,23.8,8.2,30.35,NNE,29,0.0,2.0,51,0.00,,,0.00,WUHU216DAVISVP2,2013-02-25 08:45:00,
2013-02-25 01:50:00,23.6,8.1,30.35,NNE,30,0.0,3.0,51,0.00,,,0.00,WUHU216DAVISVP2,2013-02-25 08:50:00,
2013-02-25 01:55:00,23.7,8.1,30.35,NNE,30,0.0,3.0,51,0.00,,,0.00,WUHU216DAVISVP2,2013-02-25 08:55:00,
2013-02-25 02:00:00,23.6,8.1,30.36,NNE,30,0.0,2.0,51,0.00,,,0.00,WUHU216DAVISVP2,2013-02-25 09:00:00,
2013-02-25 02:05:00,23.4,9.2,30.37,South,186,1.0,4.0,54,0.00,,,0.00,WUHU216DAVISVP2,2013-02-25 09:05:00,
2013-02-25 02:10:00,23.0,9.6,30.37,SSE,163,1.0,4.0,56,0.00,,,0.00,WUHU216DAVISVP2,2013-02-25 09:10:00,
2013-02-25 02:15:00,22.6,8.8,30.37,SSE,163,1.0,2.0,55,0.00,,,0.00,WUHU216DAVISVP2,2013-02-25 09:15:00,
2013-02-25 02:20:00,23.0,8.8,30.37,WNW,288,2.0,3.0,54,0.00,,,0.00,WUHU216DAVISVP2,2013-02-25 09:20:00,
2013-02-25 02:25:00,23.5,8.8,30.36,NW,307,2.0,4.0,53,0.00,,,0.00,WUHU216DAVISVP2,2013-02-25 09:25:00,
2013-02-25 02:30:00,24.0,8.9,30.37,NW,314,0.0,4.0,52,0.00,,,0.00,WUHU216DAVISVP2,2013-02-25 09:30:00,
2013-02-25 02:35:00,24.2,8.6,30.37,NW,324,2.0,4.0,51,0.00,,,0.00,WUHU216DAVISVP2,2013-02-25 09:35:00,
2013-02-25 02:40:00,24.4,8.3,30.37,NW,321,0.0,4.0,50,0.00,,,0.00,WUHU216DAVISVP2,2013-02-25 09:40:00,
2013-02-25 02:45:00,24.3,8.3,30.37,NNE,15,0.0,3.0,50,0.00,,,0.00,WUHU216DAVISVP2,2013-02-25 09:45:00,
2013-02-25 02:50:00,24.2,8.7,30.37,North,360,1.0,2.0,51,0.00,,,0.00,WUHU216DAVISVP2,2013-02-25 09:50:00,
2013-02-25 02:55:00,23.8,8.7,30.38,NW,306,2.0,3.0,52,0.00,,,0.00,WUHU216DAVISVP2,2013-02-25 09:55:00,
2013-02-25 03:00:00,22.9,9.1,30.38,WNW,288,0.0,3.0,55,0.00,,,0.00,WUHU216DAVISVP2,2013-02-25 10:00:00,
2013-02-25 03:05:00,22.5,9.1,30.38,SE,145,2.0,3.0,56,0.00,,,0.00,WUHU216DAVISVP2,2013-02-25 10:05:00,
2013-02-25 03:10:00,22.4,9.1,30.38,SE,138,1.0,4.0,56,0.00,,,0.00,WUHU216DAVISVP2,2013-02-25 10:10:00,
2013-02-25 03:15:00,22.6,8.8,30.39,SE,138,0.0,4.0,55,0.00,,,0.00,WUHU216DAVISVP2,2013-02-25 10:15:00,
2013-02-25 03:20:00,23.0,8.8,30.39,SE,138,0.0,1.0,54,0.00,,,0.00,WUHU216DAVISVP2,2013-02-25 10:20:00,
2013-02-25 03:25:00,23.1,8.9,30.39,SSW,200,0.0,2.0,54,0.00,,,0.00,WUHU216DAVISVP2,2013-02-25 10:25:00,
2013-02-25 03:30:00,22.8,9.0,30.39,SSW,200,0.0,2.0,55,0.00,,,0.00,WUHU216DAVISVP2,2013-02-25 10:30:00,
2013-02-25 03:35:00,22.8,8.6,30.39,SW,233,0.0,3.0,54,0.00,,,0.00,WUHU216DAVISVP2,2013-02-25 10:35:00,
2013-02-25 03:40:00,22.8,8.2,30.39,SW,235,0.0,3.0,53,0.00,,,0.00,WUHU216DAVISVP2,2013-02-25 10:40:00,
2013-02-25 03:45:00,22.9,8.7,30.39,WSW,248,5.0,5.0,54,0.00,,,0.00,WUHU216DAVISVP2,2013-02-25 10:45:00,
2013-02-25 03:50:00,23.1,8.5,30.39,West,264,0.0,5.0,53,0.00,,,0.00,WUHU216DAVISVP2,2013-02-25 10:50:00,
2013-02-25 03:55:00,23.0,7.9,30.39,West,267,1.0,4.0,52,0.00,,,0.00,WUHU216DAVISVP2,2013-02-25 10:55:00,
2013-02-25 04:00:00,22.9,8.3,30.38,West,271,1.0,2.0,53,0.00,,,0.00,WUHU216DAVISVP2,2013-02-25 11:00:00,
2013-02-25 04:05:00,22.9,7.8,30.38,West,277,1.0,2.0,52,0.00,,,0.00,WUHU216DAVISVP2,2013-02-25 11:05:00,
2013-02-25 04:10:00,23.0,7.9,30.38,NNW,332,2.0,2.0,52,0.00,,,0.00,WUHU216DAVISVP2,2013-02-25 11:10:00,
2013-02-25 04:15:00,23.4,8.3,30.38,NNE,19,1.0,5.0,52,0.00,,,0.00,WUHU216DAVISVP2,2013-02-25 11:15:00,
2013-02-25 04:20:00,23.7,8.2,30.38,NNE,24,2.0,5.0,51,0.00,,,0.00,WUHU216DAVISVP2,2013-02-25 11:20:00,
2013-02-25 04:25:00,23.7,8.1,30.38,NNE,20,1.0,4.0,51,0.00,,,0.00,WUHU216DAVISVP2,2013-02-25 11:25:00,
2013-02-25 04:30:00,23.8,8.3,30.38,NNE,26,2.0,4.0,51,0.00,,,0.00,WUHU216DAVISVP2,2013-02-25 11:30:00,
2013-02-25 04:35:00,23.7,8.1,30.38,NNE,31,3.0,4.0,51,0.00,,,0.00,WUHU216DAVISVP2,2013-02-25 11:35:00,
2013-02-25 04:40:00,23.7,8.1,30.38,NNE,18,3.0,5.0,51,0.00,,,0.00,WUHU216DAVISVP2,2013-02-25 11:40:00,
2013-02-25 04:45:00,23.8,7.8,30.39,NNE,21,0.0,5.0,50,0.00,,,0.00,WUHU216DAVISVP2,2013-02-25 11:45:00,
2013-02-25 04:50:00,23.7,7.7,30.39,NNE,19,1.0,6.0,50,0.00,,,0.00,WUHU216DAVISVP2,2013-02-25 11:50:00,
2013-02-25 04:55:00,23.7,7.7,30.39,NNE,19,2.0,6.0,50,0.00,,,0.00,WUHU216DAVISVP2,2013-02-25 11:55:00,
2013-02-25 05:00:00,23.8,7.8,30.39,North,11,0.0,5.0,50,0.00,,,0.00,WUHU216DAVISVP2,2013-02-25 12:00:00,
2013-02-25 05:05:00,23.9,7.9,30.39,NNE,13,3.0,5.0,50,0.00,,,0.00,WUHU216DAVISVP2,2013-02-25 12:05:00,
2013-02-25 05:10:00,23.6,7.7,30.39,NE,40,2.0,6.0,50,0.00,,,0.00,WUHU216DAVISVP2,2013-02-25 12:10:00,
2013-02-25 05:16:00,23.4,7.9,30.39,NNE,26,2.0,6.0,51,0.00,,,0.00,WUHU216DAVISVP2,2013-02-25 12:16:00,
2013-02-25 05:21:00,23.3,7.8,30.38,NE,34,0.0,5.0,51,0.00,,,0.00,WUHU216DAVISVP2,2013-02-25 12:21:00,
2013-02-25 05:26:00,23.1,8.0,30.38,NNE,29,2.0,5.0,52,0.00,,,0.00,WUHU216DAVISVP2,2013-02-25 12:26:00,
2013-02-25 05:31:00,22.9,9.1,30.39,SSW,192,2.0,5.0,55,0.00,,,0.00,WUHU216DAVISVP2,2013-02-25 12:31:00,
2013-02-25 05:36:00,21.0,9.7,30.39,SSW,200,0.0,4.0,61,0.00,,,0.00,WUHU216DAVISVP2,2013-02-25 12:36:00,
2013-02-25 05:41:00,19.7,8.8,30.39,SSE,163,0.0,4.0,62,0.00,,,0.00,WUHU216DAVISVP2,2013-02-25 12:41:00,
2013-02-25 05:46:00,19.3,8.8,30.39,SSE,163,0.0,3.0,63,0.00,,,0.00,WUHU216DAVISVP2,2013-02-25 12:46:00,
2013-02-25 05:51:00,19.0,8.9,30.40,SSW,210,2.0,3.0,64,0.00,,,0.00,WUHU216DAVISVP2,2013-02-25 12:51:00,
2013-02-25 05:56:00,18.7,8.9,30.39,SSW,208,0.0,4.0,65,0.00,,,0.00,WUHU216DAVISVP2,2013-02-25 12:56:00,
2013-02-25 06:01:00,18.5,8.7,30.39,SSW,208,0.0,3.0,65,0.00,,,0.00,WUHU216DAVISVP2,2013-02-25 13:01:00,
2013-02-25 06:06:00,18.6,8.8,30.40,SSW,208,1.0,2.0,65,0.00,,,0.00,WUHU216DAVISVP2,2013-02-25 13:06:00,
2013-02-25 06:11:00,18.8,8.7,30.39,SSW,208,0.0,2.0,64,0.00,,,0.00,WUHU216DAVISVP2,2013-02-25 13:11:00,
2013-02-25 06:16:00,19.0,10.6,30.39,SSW,208,0.0,2.0,69,0.00,,,0.00,WUHU216DAVISVP2,2013-02-25 13:16:00,
2013-02-25 06:21:00,19.3,9.2,30.39,SSW,207,2.0,3.0,64,0.00,,,0.00,WUHU216DAVISVP2,2013-02-25 13:21:00,
2013-02-25 06:26:00,19.3,9.8,30.39,SSW,209,1.0,3.0,66,0.00,,,0.00,WUHU216DAVISVP2,2013-02-25 13:26:00,
2013-02-25 06:31:00,19.3,8.8,30.39,South,183,1.0,3.0,63,0.00,,,0.00,WUHU216DAVISVP2,2013-02-25 13:31:00,
2013-02-25 06:36:00,19.5,8.6,30.39,South,180,2.0,2.0,62,0.00,,,0.00,WUHU216DAVISVP2,2013-02-25 13:36:00,
2013-02-25 06:41:00,19.7,9.2,30.39,South,185,2.0,2.0,63,0.00,,,0.00,WUHU216DAVISVP2,2013-02-25 13:41:00,
2013-02-25 06:46:00,19.7,8.8,30.39,South,186,3.0,3.0,62,0.00,,,0.00,WUHU216DAVISVP2,2013-02-25 13:46:00,
2013-02-25 06:51:00,19.8,8.9,30.39,South,186,1.0,3.0,62,0.00,,,0.00,WUHU216DAVISVP2,2013-02-25 13:51:00,
2013-02-25 06:57:00,19.9,8.6,30.39,South,186,2.0,2.0,61,0.00,,,0.00,WUHU216DAVISVP2,2013-02-25 13:57:00,
2013-02-25 07:02:00,19.8,8.6,30.39,South,186,0.0,2.0,61,0.00,,,0.00,WUHU216DAVISVP2,2013-02-25 14:02:00,
2013-02-25 07:07:00,19.9,8.2,30.39,South,186,0.0,2.0,60,0.00,,,0.00,WUHU216DAVISVP2,2013-02-25 14:07:00,
2013-02-25 07:12:00,19.9,8.6,30.39,South,186,0.0,1.0,61,0.00,,,0.00,WUHU216DAVISVP2,2013-02-25 14:12:00,
2013-02-25 07:17:00,20.0,8.4,30.39,South,186,0.0,0.0,60,0.00,,,0.00,WUHU216DAVISVP2,2013-02-25 14:17:00,
2013-02-25 07:22:00,20.3,8.7,30.40,South,186,0.0,1.0,60,0.00,,,0.00,WUHU216DAVISVP2,2013-02-25 14:22:00,
2013-02-25 07:27:00,20.5,8.5,30.40,South,186,0.0,1.0,59,0.00,,,0.00,WUHU216DAVISVP2,2013-02-25 14:27:00,
2013-02-25 07:32:00,20.8,8.4,30.40,South,186,0.0,1.0,58,0.00,,,0.00,WUHU216DAVISVP2,2013-02-25 14:32:00,
2013-02-25 07:37:00,21.3,8.8,30.40,South,186,0.0,1.0,58,0.00,,,0.00,WUHU216DAVISVP2,2013-02-25 14:37:00,
2013-02-25 07:42:00,21.1,9.0,30.40,SSW,194,3.0,4.0,59,0.00,,,0.00,WUHU216DAVISVP2,2013-02-25 14:42:00,
2013-02-25 07:47:00,20.3,9.0,30.41,South,182,1.0,4.0,61,0.00,,,0.00,WUHU216DAVISVP2,2013-02-25 14:47:00,
2013-02-25 07:52:00,20.0,9.1,30.41,South,182,0.0,3.0,62,0.00,,,0.00,WUHU216DAVISVP2,2013-02-25 14:52:00,
2013-02-25 07:57:00,20.5,9.2,30.41,South,182,0.0,2.0,61,0.00,,,0.00,WUHU216DAVISVP2,2013-02-25 14:57:00,
2013-02-25 08:02:00,21.2,9.1,30.41,South,182,0.0,2.0,59,0.00,,,0.00,WUHU216DAVISVP2,2013-02-25 15:02:00,
2013-02-25 08:07:00,22.4,9.1,30.42,South,182,1.0,2.0,56,0.00,,,0.00,WUHU216DAVISVP2,2013-02-25 15:07:00,
2013-02-25 08:12:00,23.2,10.2,30.42,South,183,2.0,2.0,57,0.00,,,0.00,WUHU216DAVISVP2,2013-02-25 15:12:00,
2013-02-25 08:17:00,23.6,10.2,30.42,South,184,3.0,3.0,56,0.00,,,0.00,WUHU216DAVISVP2,2013-02-25 15:17:00,
2013-02-25 08:22:00,23.9,10.5,30.42,SSW,209,3.0,3.0,56,0.00,,,0.00,WUHU216DAVISVP2,2013-02-25 15:22:00,
2013-02-25 08:27:00,24.4,10.9,30.42,SSW,207,1.0,3.0,56,0.00,,,0.00,WUHU216DAVISVP2,2013-02-25 15:27:00,
2013-02-25 08:32:00,25.3,11.0,30.43,South,175,1.0,3.0,54,0.00,,,0.00,WUHU216DAVISVP2,2013-02-25 15:32:00,
2013-02-25 08:37:00,26.0,10.7,30.43,South,174,1.0,3.0,52,0.00,,,0.00,WUHU216DAVISVP2,2013-02-25 15:37:00,
2013-02-25 08:41:00,26.7,10.5,30.43,South,169,1.0,4.0,50,0.00,,,0.00,WUHU216DAVISVP2,2013-02-25 15:41:00,
2013-02-25 08:46:00,27.2,10.9,30.43,SSE,168,2.0,4.0,50,0.00,,,0.00,WUHU216DAVISVP2,2013-02-25 15:46:00,
2013-02-25 08:51:00,27.9,11.1,30.43,SSE,168,2.0,4.0,49,0.00,,,0.00,WUHU216DAVISVP2,2013-02-25 15:51:00,
2013-02-25 08:56:00,28.8,10.0,30.43,SSE,168,0.0,3.0,45,0.00,,,0.00,WUHU216DAVISVP2,2013-02-25 15:56:00,
2013-02-25 09:01:00,30.0,10.6,30.42,SSE,168,1.0,3.0,44,0.00,,,0.00,WUHU216DAVISVP2,2013-02-25 16:01:00,
2013-02-25 09:06:00,30.7,9.6,30.42,SSE,168,2.0,2.0,41,0.00,,,0.00,WUHU216DAVISVP2,2013-02-25 16:06:00,
2013-02-25 09:11:00,31.7,9.9,30.42,South,169,1.0,2.0,40,0.00,,,0.00,WUHU216DAVISVP2,2013-02-25 16:11:00,
2013-02-25 09:16:00,32.6,10.3,30.42,South,169,0.0,2.0,39,0.00,,,0.00,WUHU216DAVISVP2,2013-02-25 16:16:00,
2013-02-25 09:21:00,33.1,10.6,30.42,South,171,2.0,2.0,39,0.00,,,0.00,WUHU216DAVISVP2,2013-02-25 16:21:00,
2013-02-25 09:27:00,33.4,9.7,30.42,SW,216,2.0,3.0,37,0.00,,,0.00,WUHU216DAVISVP2,2013-02-25 16:27:00,
2013-02-25 09:31:00,33.5,11.2,30.42,SW,235,0.0,3.0,39,0.00,,,0.00,WUHU216DAVISVP2,2013-02-25 16:31:00,
2013-02-25 09:37:00,34.1,10.3,30.42,South,170,1.0,3.0,37,0.00,,,0.00,WUHU216DAVISVP2,2013-02-25 16:37:00,
2013-02-25 09:42:00,34.8,10.9,30.42,SSE,167,3.0,3.0,37,0.00,,,0.00,WUHU216DAVISVP2,2013-02-25 16:42:00,
2013-02-25 09:47:00,36.2,10.9,30.42,SSE,167,1.0,3.0,35,0.00,,,0.00,WUHU216DAVISVP2,2013-02-25 16:47:00,
2013-02-25 09:51:00,37.1,9.2,30.41,SE,146,0.0,3.0,31,0.00,,,0.00,WUHU216DAVISVP2,2013-02-25 16:51:00,
2013-02-25 09:56:00,37.1,9.2,30.41,WNW,302,3.0,3.0,31,0.00,,,0.00,WUHU216DAVISVP2,2013-02-25 16:56:00,
2013-02-25 10:01:00,37.2,8.4,30.41,WNW,302,0.0,3.0,30,0.00,,,0.00,WUHU216DAVISVP2,2013-02-25 17:01:00,
2013-02-25 10:06:00,38.0,11.2,30.41,NE,51,4.0,4.0,33,0.00,,,0.00,WUHU216DAVISVP2,2013-02-25 17:06:00,
2013-02-25 10:11:00,38.1,9.9,30.40,NE,55,1.0,5.0,31,0.00,,,0.00,WUHU216DAVISVP2,2013-02-25 17:11:00,
2013-02-25 10:17:00,38.3,10.1,30.40,NE,36,2.0,5.0,31,0.00,,,0.00,WUHU216DAVISVP2,2013-02-25 17:17:00,
2013-02-25 10:22:00,38.5,10.2,30.40,NNE,26,3.0,5.0,31,0.00,,,0.00,WUHU216DAVISVP2,2013-02-25 17:22:00,
2013-02-25 10:27:00,38.7,10.4,30.40,NE,47,4.0,5.0,31,0.00,,,0.00,WUHU216DAVISVP2,2013-02-25 17:27:00,
2013-02-25 10:31:00,38.8,9.8,30.40,NE,56,2.0,5.0,30,0.00,,,0.00,WUHU216DAVISVP2,2013-02-25 17:31:00,
2013-02-25 10:36:00,39.2,10.1,30.41,NNE,22,0.0,4.0,30,0.00,,,0.00,WUHU216DAVISVP2,2013-02-25 17:36:00,
2013-02-25 10:41:00,39.8,10.1,30.40,NNE,28,2.0,4.0,29,0.00,,,0.00,WUHU216DAVISVP2,2013-02-25 17:41:00,
2013-02-25 10:46:00,40.0,9.3,30.40,ESE,113,3.0,4.0,28,0.00,,,0.00,WUHU216DAVISVP2,2013-02-25 17:46:00,
2013-02-25 10:51:00,40.4,9.6,30.40,NE,34,2.0,5.0,28,0.00,,,0.00,WUHU216DAVISVP2,2013-02-25 17:51:00,
2013-02-25 10:56:00,40.8,9.2,30.40,North,5,2.0,5.0,27,0.00,,,0.00,WUHU216DAVISVP2,2013-02-25 17:56:00,
2013-02-25 11:02:00,40.9,9.3,30.40,NNW,334,3.0,5.0,27,0.00,,,0.00,WUHU216DAVISVP2,2013-02-25 18:02:00,
2013-02-25 11:06:00,41.1,10.2,30.39,NNE,30,5.0,5.0,28,0.00,,,0.00,WUHU216DAVISVP2,2013-02-25 18:06:00,
2013-02-25 11:11:00,41.4,9.9,30.39,NNW,342,2.0,7.0,27,0.00,,,0.00,WUHU216DAVISVP2,2013-02-25 18:11:00,
2013-02-25 11:16:00,41.8,10.9,30.40,NNE,25,4.0,7.0,28,0.00,,,0.00,WUHU216DAVISVP2,2013-02-25 18:16:00,
2013-02-25 11:21:00,41.9,10.3,30.40,NE,42,3.0,6.0,27,0.00,,,0.00,WUHU216DAVISVP2,2013-02-25 18:21:00,
2013-02-25 11:26:00,42.1,9.5,30.39,NNW,337,4.0,6.0,26,0.00,,,0.00,WUHU216DAVISVP2,2013-02-25 18:26:00,
2013-02-25 11:32:00,42.2,9.6,30.39,NNE,24,2.0,6.0,26,0.00,,,0.00,WUHU216DAVISVP2,2013-02-25 18:32:00,
2013-02-25 11:37:00,42.5,9.1,30.39,NW,323,0.0,6.0,25,0.00,,,0.00,WUHU216DAVISVP2,2013-02-25 18:37:00,
2013-02-25 11:42:00,43.1,9.6,30.39,ENE,68,3.0,6.0,25,0.00,,,0.00,WUHU216DAVISVP2,2013-02-25 18:42:00,
2013-02-25 11:47:00,43.1,8.7,30.38,NE,53,3.0,7.0,24,0.00,,,0.00,WUHU216DAVISVP2,2013-02-25 18:47:00,
2013-02-25 11:52:00,43.4,9.7,30.38,NNE,15,5.0,7.0,25,0.00,,,0.00,WUHU216DAVISVP2,2013-02-25 18:52:00,
2013-02-25 11:57:00,43.7,8.3,30.38,ENE,76,3.0,6.0,23,0.00,,,0.00,WUHU216DAVISVP2,2013-02-25 18:57:00,
2013-02-25 12:02:00,43.5,8.0,30.38,NE,42,5.0,7.0,23,0.00,,,0.00,WUHU216DAVISVP2,2013-02-25 19:02:00,
2013-02-25 12:07:00,44.6,8.9,30.37,NW,317,1.0,7.0,23,0.00,,,0.00,WUHU216DAVISVP2,2013-02-25 19:07:00,
2013-02-25 12:12:00,44.9,7.3,30.36,NNE,13,5.0,5.0,21,0.00,,,0.00,WUHU216DAVISVP2,2013-02-25 19:12:00,
2013-02-25 12:17:00,44.7,7.1,30.35,East,91,1.0,8.0,21,0.00,,,0.00,WUHU216DAVISVP2,2013-02-25 19:17:00,
2013-02-25 12:22:00,45.1,7.4,30.35,ENE,75,2.0,8.0,21,0.00,,,0.00,WUHU216DAVISVP2,2013-02-25 19:22:00,
2013-02-25 12:27:00,45.4,6.6,30.35,ENE,63,3.0,8.0,20,0.00,,,0.00,WUHU216DAVISVP2,2013-02-25 19:27:00,
2013-02-25 12:32:00,45.6,4.5,30.34,NE,52,4.0,7.0,18,0.00,,,0.00,WUHU216DAVISVP2,2013-02-25 19:32:00,
2013-02-25 12:37:00,45.7,4.5,30.34,NE,50,1.0,7.0,18,0.00,,,0.00,WUHU216DAVISVP2,2013-02-25 19:37:00,
2013-02-25 12:42:00,45.7,5.7,30.33,NNW,327,1.0,10.0,19,0.00,,,0.00,WUHU216DAVISVP2,2013-02-25 19:42:00,
2013-02-25 12:47:00,45.9,5.9,30.33,NNE,19,4.0,10.0,19,0.00,,,0.00,WUHU216DAVISVP2,2013-02-25 19:47:00,
2013-02-25 12:52:00,46.0,6.0,30.33,ENE,63,5.0,9.0,19,0.00,,,0.00,WUHU216DAVISVP2,2013-02-25 19:52:00,
2013-02-25 12:57:00,46.1,4.9,30.33,SW,221,1.0,7.0,18,0.00,,,0.00,WUHU216DAVISVP2,2013-02-25 19:57:00,
2013-02-25 13:02:00,46.3,5.0,30.33,North,9,3.0,7.0,18,0.00,,,0.00,WUHU216DAVISVP2,2013-02-25 20:02:00,
2013-02-25 13:07:00,47.3,0.4,30.32,NNE,32,5.0,7.0,14,0.00,,,0.00,WUHU216DAVISVP2,2013-02-25 20:07:00,
2013-02-25 13:12:00,47.3,-1.2,30.32,ENE,61,3.0,10.0,13,0.00,,,0.00,WUHU216DAVISVP2,2013-02-25 20:12:00,
2013-02-25 13:17:00,47.2,0.3,30.31,NE,53,2.0,10.0,14,0.00,,,0.00,WUHU216DAVISVP2,2013-02-25 20:17:00,
2013-02-25 13:22:00,47.5,4.8,30.31,North,5,3.0,8.0,17,0.00,,,0.00,WUHU216DAVISVP2,2013-02-25 20:22:00,
2013-02-25 13:27:00,47.8,3.7,30.31,ENE,60,1.0,7.0,16,0.00,,,0.00,WUHU216DAVISVP2,2013-02-25 20:27:00,
2013-02-25 13:32:00,48.1,5.3,30.30,ENE,62,5.0,7.0,17,0.00,,,0.00,WUHU216DAVISVP2,2013-02-25 20:32:00,
2013-02-25 13:37:00,48.5,5.6,30.30,West,275,5.0,7.0,17,0.00,,,0.00,WUHU216DAVISVP2,2013-02-25 20:37:00,
2013-02-25 13:42:00,48.8,3.1,30.30,East,81,3.0,6.0,15,0.00,,,0.00,WUHU216DAVISVP2,2013-02-25 20:42:00,
2013-02-25 13:47:00,48.7,4.4,30.30,ENE,65,4.0,7.0,16,0.00,,,0.00,WUHU216DAVISVP2,2013-02-25 20:47:00,
2013-02-25 13:52:00,48.1,3.9,30.30,NE,51,5.0,7.0,16,0.00,,,0.00,WUHU216DAVISVP2,2013-02-25 20:52:00,
2013-02-25 13:57:00,48.4,4.2,30.29,ENE,68,2.0,7.0,16,0.00,,,0.00,WUHU216DAVISVP2,2013-02-25 20:57:00,
2013-02-25 14:02:00,48.2,4.0,30.29,East,98,6.0,7.0,16,0.00,,,0.00,WUHU216DAVISVP2,2013-02-25 21:02:00,
2013-02-25 14:07:00,48.2,4.0,30.28,South,177,4.0,7.0,16,0.00,,,0.00,WUHU216DAVISVP2,2013-02-25 21:07:00,
2013-02-25 14:12:00,48.5,5.6,30.28,South,188,0.0,7.0,17,0.00,,,0.00,WUHU216DAVISVP2,2013-02-25 21:12:00,
2013-02-25 14:17:00,49.4,5.0,30.28,ESE,109,2.0,7.0,16,0.00,,,0.00,WUHU216DAVISVP2,2013-02-25 21:17:00,
2013-02-25 14:22:00,49.9,5.4,30.28,SSW,192,3.0,4.0,16,0.00,,,0.00,WUHU216DAVISVP2,2013-02-25 21:22:00,
2013-02-25 14:27:00,50.1,5.6,30.28,NW,306,1.0,4.0,16,0.00,,,0.00,WUHU216DAVISVP2,2013-02-25 21:27:00,
2013-02-25 14:32:00,50.6,4.6,30.27,NNE,17,1.0,5.0,15,0.00,,,0.00,WUHU216DAVISVP2,2013-02-25 21:32:00,
2013-02-25 14:37:00,50.4,4.4,30.27,East,88,1.0,5.0,15,0.00,,,0.00,WUHU216DAVISVP2,2013-02-25 21:37:00,
2013-02-25 14:42:00,50.4,4.4,30.27,NW,325,1.0,5.0,15,0.00,,,0.00,WUHU216DAVISVP2,2013-02-25 21:42:00,
2013-02-25 14:47:00,50.9,4.8,30.27,NE,38,5.0,5.0,15,0.00,,,0.00,WUHU216DAVISVP2,2013-02-25 21:47:00,
2013-02-25 14:52:00,50.9,3.3,30.27,NE,47,2.0,6.0,14,0.00,,,0.00,WUHU216DAVISVP2,2013-02-25 21:52:00,
2013-02-25 14:57:00,51.1,3.4,30.27,NNE,28,1.0,6.0,14,0.00,,,0.00,WUHU216DAVISVP2,2013-02-25 21:57:00,
2013-02-25 15:02:00,51.9,5.6,30.27,WSW,245,4.0,6.0,15,0.00,,,0.00,WUHU216DAVISVP2,2013-02-25 22:02:00,
2013-02-25 15:07:00,52.0,4.2,30.27,SSW,213,5.0,8.0,14,0.00,,,0.00,WUHU216DAVISVP2,2013-02-25 22:07:00,
2013-02-25 15:12:00,52.0,2.6,30.26,South,173,0.0,8.0,13,0.00,,,0.00,WUHU216DAVISVP2,2013-02-25 22:12:00,
2013-02-25 15:17:00,52.2,5.9,30.26,SW,234,3.0,7.0,15,0.00,,,0.00,WUHU216DAVISVP2,2013-02-25 22:17:00,
2013-02-25 15:22:00,51.1,3.4,30.26,WSW,253,5.0,12.0,14,0.00,,,0.00,WUHU216DAVISVP2,2013-02-25 22:22:00,
2013-02-25 15:27:00,51.4,5.2,30.26,WSW,242,5.0,12.0,15,0.00,,,0.00,WUHU216DAVISVP2,2013-02-25 22:27:00,
2013-02-25 15:32:00,51.2,5.0,30.25,West,266,9.0,9.0,15,0.00,,,0.00,WUHU216DAVISVP2,2013-02-25 22:32:00,
2013-02-25 15:37:00,50.9,3.3,30.25,West,268,5.0,10.0,14,0.00,,,0.00,WUHU216DAVISVP2,2013-02-25 22:37:00,
2013-02-25 15:42:00,51.0,4.9,30.25,WSW,254,6.0,10.0,15,0.00,,,0.00,WUHU216DAVISVP2,2013-02-25 22:42:00,
2013-02-25 15:47:00,50.6,4.6,30.25,NE,46,0.0,8.0,15,0.00,,,0.00,WUHU216DAVISVP2,2013-02-25 22:47:00,
2013-02-25 15:52:00,51.3,5.1,30.25,SW,236,4.0,7.0,15,0.00,,,0.00,WUHU216DAVISVP2,2013-02-25 22:52:00,
2013-02-25 15:57:00,51.3,5.1,30.25,West,273,5.0,10.0,15,0.00,,,0.00,WUHU216DAVISVP2,2013-02-25 22:57:00,
2013-02-25 16:02:00,51.2,5.0,30.25,WSW,249,3.0,10.0,15,0.00,,,0.00,WUHU216DAVISVP2,2013-02-25 23:02:00,
2013-02-25 16:07:00,52.0,7.1,30.25,WSW,247,7.0,11.0,16,0.00,,,0.00,WUHU216DAVISVP2,2013-02-25 23:07:00,
2013-02-25 16:12:00,51.4,6.6,30.24,SW,231,5.0,11.0,16,0.00,,,0.00,WUHU216DAVISVP2,2013-02-25 23:12:00,
2013-02-25 16:17:00,51.5,8.1,30.24,SW,234,5.0,14.0,17,0.00,,,0.00,WUHU216DAVISVP2,2013-02-25 23:17:00,
2013-02-25 16:22:00,50.9,7.6,30.24,SW,228,8.0,16.0,17,0.00,,,0.00,WUHU216DAVISVP2,2013-02-25 23:22:00,
2013-02-25 16:27:00,50.0,9.3,30.24,WSW,241,9.0,16.0,19,0.00,,,0.00,WUHU216DAVISVP2,2013-02-25 23:27:00,
2013-02-25 16:32:00,49.9,9.2,30.24,West,264,9.0,14.0,19,0.00,,,0.00,WUHU216DAVISVP2,2013-02-25 23:32:00,
2013-02-25 16:37:00,49.0,8.5,30.24,SW,218,9.0,15.0,19,0.00,,,0.00,WUHU216DAVISVP2,2013-02-25 23:37:00,
2013-02-25 16:42:00,48.5,8.0,30.24,SW,226,11.0,15.0,19,0.00,,,0.00,WUHU216DAVISVP2,2013-02-25 23:42:00,
2013-02-25 16:47:00,48.2,8.9,30.24,WSW,239,8.0,14.0,20,0.00,,,0.00,WUHU216DAVISVP2,2013-02-25 23:47:00,
2013-02-25 16:52:00,48.2,8.9,30.24,SW,215,10.0,14.0,20,0.00,,,0.00,WUHU216DAVISVP2,2013-02-25 23:52:00,
2013-02-25 16:57:00,47.7,8.5,30.24,SW,215,8.0,13.0,20,0.00,,,0.00,WUHU216DAVISVP2,2013-02-25 23:57:00,
2013-02-25 17:02:00,47.6,8.4,30.24,SW,236,10.0,12.0,20,0.00,,,0.00,WUHU216DAVISVP2,2013-02-26 00:02:00,
2013-02-25 17:07:00,47.0,7.9,30.24,WSW,238,7.0,13.0,20,0.00,,,0.00,WUHU216DAVISVP2,2013-02-26 00:07:00,
2013-02-25 17:12:00,46.9,8.9,30.23,SW,225,6.0,13.0,21,0.00,,,0.00,WUHU216DAVISVP2,2013-02-26 00:12:00,
2013-02-25 17:17:00,46.8,8.8,30.23,WSW,241,11.0,13.0,21,0.00,,,0.00,WUHU216DAVISVP2,2013-02-26 00:17:00,
2013-02-25 17:22:00,46.5,8.6,30.23,SSW,212,8.0,13.0,21,0.00,,,0.00,WUHU216DAVISVP2,2013-02-26 00:22:00,
2013-02-25 17:27:00,46.3,9.5,30.23,SW,225,6.0,12.0,22,0.00,,,0.00,WUHU216DAVISVP2,2013-02-26 00:27:00,
2013-02-25 17:32:00,46.3,9.5,30.23,SW,225,8.0,12.0,22,0.00,,,0.00,WUHU216DAVISVP2,2013-02-26 00:32:00,
2013-02-25 17:37:00,46.1,10.3,30.23,WSW,252,5.0,10.0,23,0.00,,,0.00,WUHU216DAVISVP2,2013-02-26 00:37:00,
2013-02-25 17:42:00,46.2,10.4,30.23,WSW,248,8.0,10.0,23,0.00,,,0.00,WUHU216DAVISVP2,2013-02-26 00:42:00,
2013-02-25 17:47:00,45.8,10.0,30.23,SSW,212,9.0,10.0,23,0.00,,,0.00,WUHU216DAVISVP2,2013-02-26 00:47:00,
2013-02-25 17:52:00,44.9,9.2,30.23,SW,220,7.0,13.0,23,0.00,,,0.00,WUHU216DAVISVP2,2013-02-26 00:52:00,
2013-02-25 17:57:00,44.5,9.8,30.23,South,180,7.0,13.0,24,0.00,,,0.00,WUHU216DAVISVP2,2013-02-26 00:57:00,
2013-02-25 18:02:00,44.0,9.4,30.23,SSW,198,7.0,10.0,24,0.00,,,0.00,WUHU216DAVISVP2,2013-02-26 01:02:00,
2013-02-25 18:07:00,43.6,9.9,30.24,SSW,212,7.0,10.0,25,0.00,,,0.00,WUHU216DAVISVP2,2013-02-26 01:07:00,
2013-02-25 18:12:00,43.0,9.4,30.23,SW,236,11.0,11.0,25,0.00,,,0.00,WUHU216DAVISVP2,2013-02-26 01:12:00,
2013-02-25 18:17:00,42.2,9.6,30.23,SSW,213,4.0,11.0,26,0.00,,,0.00,WUHU216DAVISVP2,2013-02-26 01:17:00,
2013-02-25 18:22:00,41.6,9.9,30.23,SW,219,6.0,10.0,27,0.00,,,0.00,WUHU216DAVISVP2,2013-02-26 01:22:00,
2013-02-25 18:27:00,41.1,10.2,30.23,WSW,237,5.0,9.0,28,0.00,,,0.00,WUHU216DAVISVP2,2013-02-26 01:27:00,
2013-02-25 18:32:00,40.8,10.0,30.23,WSW,253,5.0,9.0,28,0.00,,,0.00,WUHU216DAVISVP2,2013-02-26 01:32:00,
2013-02-25 18:37:00,40.4,10.4,30.23,SW,219,6.0,9.0,29,0.00,,,0.00,WUHU216DAVISVP2,2013-02-26 01:37:00,
2013-02-25 18:42:00,40.1,10.2,30.23,SSW,207,6.0,8.0,29,0.00,,,0.00,WUHU216DAVISVP2,2013-02-26 01:42:00,
2013-02-25 18:47:00,39.8,10.6,30.22,SW,221,6.0,9.0,30,0.00,,,0.00,WUHU216DAVISVP2,2013-02-26 01:47:00,
2013-02-25 18:52:00,39.6,10.5,30.22,SW,235,5.0,9.0,30,0.00,,,0.00,WUHU216DAVISVP2,2013-02-26 01:52:00,
2013-02-25 18:57:00,39.1,10.8,30.22,WSW,237,3.0,6.0,31,0.00,,,0.00,WUHU216DAVISVP2,2013-02-26 01:57:00,
2013-02-25 19:02:00,38.9,10.6,30.22,SSW,205,2.0,5.0,31,0.00,,,0.00,WUHU216DAVISVP2,2013-02-26 02:02:00,
2013-02-25 19:07:00,38.6,11.0,30.22,SSW,207,1.0,5.0,32,0.00,,,0.00,WUHU216DAVISVP2,2013-02-26 02:07:00,
2013-02-25 19:12:00,38.2,11.4,30.22,SW,228,3.0,5.0,33,0.00,,,0.00,WUHU216DAVISVP2,2013-02-26 02:12:00,
2013-02-25 19:17:00,37.8,11.0,30.22,SW,219,3.0,4.0,33,0.00,,,0.00,WUHU216DAVISVP2,2013-02-26 02:17:00,
2013-02-25 19:22:00,37.3,11.2,30.22,SSW,204,6.0,6.0,34,0.00,,,0.00,WUHU216DAVISVP2,2013-02-26 02:22:00,
2013-02-25 19:27:00,37.0,11.0,30.22,SW,217,2.0,6.0,34,0.00,,,0.00,WUHU216DAVISVP2,2013-02-26 02:27:00,
2013-02-25 19:32:00,36.7,10.7,30.22,WSW,237,4.0,6.0,34,0.00,,,0.00,WUHU216DAVISVP2,2013-02-26 02:32:00,
2013-02-25 19:37:00,36.4,11.1,30.22,SW,223,3.0,6.0,35,0.00,,,0.00,WUHU216DAVISVP2,2013-02-26 02:37:00,
2013-02-25 19:42:00,36.2,10.9,30.22,SW,222,2.0,5.0,35,0.00,,,0.00,WUHU216DAVISVP2,2013-02-26 02:42:00,
2013-02-25 19:47:00,35.9,11.3,30.22,SW,230,2.0,5.0,36,0.00,,,0.00,WUHU216DAVISVP2,2013-02-26 02:47:00,
2013-02-25 19:52:00,35.7,11.1,30.22,SSW,194,3.0,5.0,36,0.00,,,0.00,WUHU216DAVISVP2,2013-02-26 02:52:00,
2013-02-25 19:57:00,35.6,11.0,30.22,SSW,192,2.0,5.0,36,0.00,,,0.00,WUHU216DAVISVP2,2013-02-26 02:57:00,
2013-02-25 20:02:00,35.3,11.4,30.22,South,181,2.0,3.0,37,0.00,,,0.00,WUHU216DAVISVP2,2013-02-26 03:02:00,
2013-02-25 20:07:00,35.0,11.3,30.22,South,191,2.0,3.0,37,0.00,,,0.00,WUHU216DAVISVP2,2013-02-26 03:07:00,
2013-02-25 20:12:00,34.7,11.4,30.22,South,191,1.0,2.0,38,0.00,,,0.00,WUHU216DAVISVP2,2013-02-26 03:12:00,
2013-02-25 20:17:00,34.4,11.8,30.23,SW,217,1.0,3.0,39,0.00,,,0.00,WUHU216DAVISVP2,2013-02-26 03:17:00,
2013-02-25 20:22:00,34.3,11.7,30.23,SW,219,2.0,3.0,39,0.00,,,0.00,WUHU216DAVISVP2,2013-02-26 03:22:00,
2013-02-25 20:27:00,34.5,11.3,30.23,SSW,193,1.0,3.0,38,0.00,,,0.00,WUHU216DAVISVP2,2013-02-26 03:27:00,
2013-02-25 20:32:00,34.6,10.8,30.23,SSE,156,2.0,3.0,37,0.00,,,0.00,WUHU216DAVISVP2,2013-02-26 03:32:00,
2013-02-25 20:37:00,34.7,10.8,30.23,SW,219,1.0,3.0,37,0.00,,,0.00,WUHU216DAVISVP2,2013-02-26 03:37:00,
2013-02-25 20:42:00,34.9,10.4,30.23,SW,219,1.0,5.0,36,0.00,,,0.00,WUHU216DAVISVP2,2013-02-26 03:42:00,
2013-02-25 20:47:00,35.1,10.6,30.22,South,183,0.0,5.0,36,0.00,,,0.00,WUHU216DAVISVP2,2013-02-26 03:47:00,
2013-02-25 20:52:00,34.9,10.4,30.22,SSW,196,2.0,3.0,36,0.00,,,0.00,WUHU216DAVISVP2,2013-02-26 03:52:00,
2013-02-25 20:57:00,34.5,10.7,30.22,SSW,196,2.0,3.0,37,0.00,,,0.00,WUHU216DAVISVP2,2013-02-26 03:57:00,
2013-02-25 21:02:00,34.1,10.3,30.21,SSE,165,2.0,4.0,37,0.00,,,0.00,WUHU216DAVISVP2,2013-02-26 04:02:00,
2013-02-25 21:07:00,33.6,11.1,30.21,SSW,211,0.0,4.0,39,0.00,,,0.00,WUHU216DAVISVP2,2013-02-26 04:07:00,
2013-02-25 21:12:00,32.9,11.6,30.21,SSW,212,1.0,3.0,41,0.00,,,0.00,WUHU216DAVISVP2,2013-02-26 04:12:00,
2013-02-25 21:17:00,32.5,11.8,30.20,SSW,212,2.0,3.0,42,0.00,,,0.00,WUHU216DAVISVP2,2013-02-26 04:17:00,
2013-02-25 21:22:00,32.0,11.9,30.20,SW,215,3.0,4.0,43,0.00,,,0.00,WUHU216DAVISVP2,2013-02-26 04:22:00,
2013-02-25 21:27:00,31.7,11.6,30.20,SSW,204,3.0,4.0,43,0.00,,,0.00,WUHU216DAVISVP2,2013-02-26 04:27:00,
2013-02-25 21:32:00,31.6,11.5,30.20,SSW,200,4.0,5.0,43,0.00,,,0.00,WUHU216DAVISVP2,2013-02-26 04:32:00,
2013-02-25 21:37:00,31.8,11.7,30.20,SSW,200,4.0,5.0,43,0.00,,,0.00,WUHU216DAVISVP2,2013-02-26 04:37:00,
2013-02-25 21:42:00,32.0,11.3,30.20,SSW,207,3.0,4.0,42,0.00,,,0.00,WUHU216DAVISVP2,2013-02-26 04:42:00,
2013-02-25 21:47:00,32.1,10.8,30.20,SSW,193,2.0,5.0,41,0.00,,,0.00,WUHU216DAVISVP2,2013-02-26 04:47:00,
2013-02-25 21:52:00,32.1,10.8,30.20,SSW,197,1.0,5.0,41,0.00,,,0.00,WUHU216DAVISVP2,2013-02-26 04:52:00,
2013-02-25 21:57:00,32.1,11.0,30.20,South,184,2.0,4.0,41,0.00,,,0.00,WUHU216DAVISVP2,2013-02-26 04:57:00,
2013-02-25 22:00:00,32.1,11.0,30.20,South,178,1.0,3.0,41,0.00,,,0.00,WUHU216DAVISVP2,2013-02-26 05:00:00,
2013-02-25 22:05:00,32.0,10.8,30.20,South,181,1.0,3.0,41,0.00,,,0.00,WUHU216DAVISVP2,2013-02-26 05:05:00,
2013-02-25 22:10:00,32.0,11.3,30.20,SSW,196,0.0,3.0,42,0.00,,,0.00,WUHU216DAVISVP2,2013-02-26 05:10:00,
2013-02-25 22:15:00,32.1,10.8,30.20,SSW,194,3.0,3.0,41,0.00,,,0.00,WUHU216DAVISVP2,2013-02-26 05:15:00,
2013-02-25 22:20:00,32.3,11.0,30.20,SSW,196,3.0,4.0,41,0.00,,,0.00,WUHU216DAVISVP2,2013-02-26 05:20:00,
2013-02-25 22:25:00,32.3,11.0,30.20,SSW,194,1.0,4.0,41,0.00,,,0.00,WUHU216DAVISVP2,2013-02-26 05:25:00,
2013-02-25 22:30:00,32.2,10.4,30.20,South,190,1.0,3.0,40,0.00,,,0.00,WUHU216DAVISVP2,2013-02-26 05:30:00,
2013-02-25 22:35:00,32.2,10.4,30.20,South,190,0.0,2.0,40,0.00,,,0.00,WUHU216DAVISVP2,2013-02-26 05:35:00,
2013-02-25 22:40:00,32.0,10.8,30.20,South,185,1.0,2.0,41,0.00,,,0.00,WUHU216DAVISVP2,2013-02-26 05:40:00,
2013-02-25 22:45:00,31.8,10.6,30.19,SSE,168,1.0,3.0,41,0.00,,,0.00,WUHU216DAVISVP2,2013-02-26 05:45:00,
2013-02-25 22:50:00,31.7,10.5,30.20,SSE,164,0.0,3.0,41,0.00,,,0.00,WUHU216DAVISVP2,2013-02-26 05:50:00,
2013-02-25 22:55:00,31.5,10.5,30.20,SSE,164,0.0,3.0,41,0.00,,,0.00,WUHU216DAVISVP2,2013-02-26 05:55:00,
2013-02-25 23:00:00,31.4,10.4,30.20,SSE,165,2.0,2.0,41,0.00,,,0.00,WUHU216DAVISVP2,2013-02-26 06:00:00,
2013-02-25 23:05:00,31.4,10.2,30.20,SSE,165,0.0,2.0,41,0.00,,,0.00,WUHU216DAVISVP2,2013-02-26 06:05:00,
2013-02-25 23:10:00,31.5,10.3,30.20,SSE,165,0.0,2.0,41,0.00,,,0.00,WUHU216DAVISVP2,2013-02-26 06:10:00,
2013-02-25 23:15:00,31.4,10.2,30.19,South,169,1.0,1.0,41,0.00,,,0.00,WUHU216DAVISVP2,2013-02-26 06:15:00,
2013-02-25 23:20:00,30.9,10.3,30.20,South,191,0.0,4.0,42,0.00,,,0.00,WUHU216DAVISVP2,2013-02-26 06:20:00,
2013-02-25 23:25:00,30.6,10.0,30.19,SSW,196,2.0,4.0,42,0.00,,,0.00,WUHU216DAVISVP2,2013-02-26 06:25:00,
2013-02-25 23:30:00,30.8,9.7,30.19,South,188,0.0,3.0,41,0.00,,,0.00,WUHU216DAVISVP2,2013-02-26 06:30:00,
2013-02-25 23:35:00,30.9,9.8,30.19,SSE,168,0.0,3.0,41,0.00,,,0.00,WUHU216DAVISVP2,2013-02-26 06:35:00,
2013-02-25 23:40:00,30.9,9.8,30.19,SSE,168,1.0,3.0,41,0.00,,,0.00,WUHU216DAVISVP2,2013-02-26 06:40:00,
2013-02-25 23:45:00,30.8,9.7,30.19,South,176,2.0,3.0,41,0.00,,,0.00,WUHU216DAVISVP2,2013-02-26 06:45:00,
2013-02-25 23:50:00,30.7,9.6,30.19,SSW,196,1.0,3.0,41,0.00,,,0.00,WUHU216DAVISVP2,2013-02-26 06:50:00,
2013-02-25 23:55:00,30.8,9.1,30.19,SSW,196,0.0,3.0,40,0.00,,,0.00,WUHU216DAVISVP2,2013-02-26 06:55:00,